Vise, Belgium
Current Conditions -  °F | °C
As of 7:25 AM on Monday 26 Jan 2015 (Local Time) from EHBK Reporting Station
Haze Haze  
Wind Chill: 26°   Ceiling: 100
Heat Index: 36°   Visibility: 1.3mi
Dew Point: 36°   Wind: 15mph
Humidity: 100%   Direction: 200°SSW
Pressure: 30.18"   Gusts: NA
Location:  50.74°N, 5.7°E
Report Text: EHBK 260625Z AUTO 20013KT 2200 BR OVC001 02/02 Q1022 REDZ TEMPO1200 BKN002
Loading
Personal Weather Stations






























Interactive Weather Map New forecast layout! Learn more

10-Day Weather Forecast

Advertisements
Track Severe Weather on mobile